Time;durP1;ratioP1;P1;durP2;ratioP2;P2;SDS_P1;SDS_P2;PMS_P1;PMS_P2;Temp;Humidity;BMP_temperature;BMP_pressure;BME280_temperature;BME280_humidity;BME280_pressure;Samples;Min_cycle;Max_cycle;Signal;HPM_P1;HPM_P2
2022/10/19 00:02:06;;;;;;;0.73;0.30;;;21.50;49.30;20.60;102455.00;;;;5066048;28;20063;-68
2022/10/19 00:04:32;;;;;;;0.30;0.30;;;21.50;49.40;20.60;102451.00;;;;5090967;28;20025;-68
2022/10/19 00:06:57;;;;;;;0.80;0.60;;;21.50;49.40;20.60;102445.00;;;;5068827;28;20059;-67
2022/10/19 00:09:23;;;;;;;0.70;0.40;;;21.50;49.40;20.60;102447.00;;;;5074704;28;20107;-68
2022/10/19 00:11:49;;;;;;;0.67;0.40;;;21.50;49.30;20.60;102446.00;;;;5064594;28;20115;-68
2022/10/19 00:14:19;;;;;;;0.75;0.40;;;21.40;49.30;20.60;102449.00;;;;5087493;28;20142;-67
2022/10/19 00:16:45;;;;;;;0.20;0.20;;;21.50;49.30;20.60;102454.00;;;;5063111;28;20107;-68
2022/10/19 00:19:14;;;;;;;1.05;0.30;;;21.40;49.20;20.60;102448.00;;;;5068260;28;20478;-68
2022/10/19 00:21:40;;;;;;;0.60;0.40;;;21.40;49.20;20.60;102444.00;;;;5069248;28;20032;-68
2022/10/19 00:24:06;;;;;;;0.37;0.37;;;21.40;49.20;20.50;102448.00;;;;5076058;28;20377;-68
2022/10/19 00:26:32;;;;;;;0.38;0.38;;;21.40;49.10;20.50;102444.00;;;;5058500;28;20710;-68
2022/10/19 00:28:58;;;;;;;0.57;0.40;;;21.40;49.10;20.50;102453.00;;;;5087730;28;20028;-67
2022/10/19 00:31:24;;;;;;;0.63;0.53;;;21.40;49.10;20.50;102451.00;;;;5045827;28;20536;-68
2022/10/19 00:33:50;;;;;;;0.65;0.30;;;21.40;49.10;20.50;102467.00;;;;5064510;28;20032;-68
2022/10/19 00:36:37;;;;;;;3.17;0.63;;;21.40;49.00;20.50;102459.00;;;;5049263;28;20052;-68
2022/10/19 00:39:04;;;;;;;0.50;0.50;;;21.30;49.70;20.50;102464.00;;;;5053090;28;20028;-67
2022/10/19 00:41:31;;;;;;;0.95;0.57;;;21.40;49.00;20.50;102460.00;;;;5071784;28;20107;-68
2022/10/19 00:44:11;;;;;;;1.60;0.52;;;21.40;49.00;20.50;102472.00;;;;5073016;28;20056;-68
2022/10/19 00:46:42;;;;;;;0.70;0.65;;;21.30;48.80;20.50;102468.00;;;;5073379;28;20035;-67
2022/10/19 00:49:22;;;;;;;0.47;0.47;;;21.40;48.90;20.50;102468.00;;;;5066405;28;20056;-68
2022/10/19 00:51:53;;;;;;;0.68;0.45;;;21.40;48.80;20.50;102469.00;;;;5050759;28;20033;-68
2022/10/19 00:54:19;;;;;;;0.60;0.40;;;21.40;48.90;20.50;102467.00;;;;5091602;28;20055;-67
2022/10/19 00:56:47;;;;;;;0.50;0.50;;;21.40;48.90;20.50;102463.00;;;;5043922;28;20052;-68
2022/10/19 00:59:15;;;;;;;1.00;0.60;;;21.30;48.80;20.50;102463.00;;;;5051942;28;20470;-67
2022/10/19 01:01:41;;;;;;;1.10;0.52;;;21.30;48.80;20.50;102461.00;;;;5039179;28;20106;-68
2022/10/19 01:04:07;;;;;;;0.80;0.40;;;21.30;49.60;20.50;102463.00;;;;5065657;28;20016;-68
2022/10/19 01:06:33;;;;;;;0.50;0.47;;;21.30;48.80;20.40;102464.00;;;;5058244;28;20129;-68
2022/10/19 01:08:58;;;;;;;0.87;0.73;;;21.30;48.80;20.40;102457.00;;;;5052065;28;20044;-67
2022/10/19 01:11:45;;;;;;;1.10;0.50;;;21.30;48.70;20.40;102452.00;;;;5059061;28;20872;-67
2022/10/19 01:14:37;;;;;;;0.70;0.50;;;21.30;48.70;20.40;102453.00;;;;5061098;28;20054;-68
2022/10/19 01:17:45;;;;;;;0.52;0.40;;;21.30;48.70;20.40;102447.00;;;;5059799;28;20031;-68
2022/10/19 01:21:02;;;;;;;0.93;0.40;;;21.30;48.60;20.40;102455.00;;;;5058495;28;20366;-68
2022/10/19 01:24:12;;;;;;;1.40;0.60;;;21.30;48.70;20.40;102457.00;;;;5041378;28;20126;-67
2022/10/19 01:27:19;;;;;;;1.77;0.60;;;21.30;48.60;20.40;102452.00;;;;5051641;28;20034;-68
2022/10/19 01:30:36;;;;;;;1.83;0.52;;;21.20;48.50;20.30;102451.00;;;;5071845;28;20057;-67
2022/10/19 01:33:08;;;;;;;0.73;0.50;;;21.20;48.70;20.30;102448.00;;;;5062121;28;20029;-67
2022/10/19 01:36:03;;;;;;;1.35;0.60;;;21.20;48.60;20.30;102455.00;;;;5077326;28;20056;-67
2022/10/19 01:38:47;;;;;;;0.40;0.40;;;21.20;48.50;20.30;102458.00;;;;5057993;28;20120;-67
2022/10/19 01:41:35;;;;;;;1.42;0.50;;;21.20;48.40;20.30;102458.00;;;;5067337;28;20394;-67
2022/10/19 01:44:14;;;;;;;;;;;21.20;48.50;20.30;102468.00;;;;5063603;28;20050;-67
2022/10/19 01:46:43;;;;;;;1.25;0.60;;;21.20;48.90;20.30;102466.00;;;;5087005;28;19908;-67
2022/10/19 01:49:48;;;;;;;0.73;0.40;;;21.20;48.50;20.30;102456.00;;;;5045274;28;20120;-67
2022/10/19 01:52:15;;;;;;;0.70;0.50;;;21.20;48.40;20.30;102452.00;;;;5041936;28;20050;-67
2022/10/19 01:54:44;;;;;;;0.43;0.43;;;21.20;48.40;20.30;102455.00;;;;5068353;28;20024;-67
2022/10/19 01:57:11;;;;;;;1.75;0.50;;;21.10;48.30;20.30;102462.00;;;;5042330;28;20025;-67
2022/10/19 01:59:37;;;;;;;0.52;0.50;;;21.10;48.30;20.30;102448.00;;;;5048078;28;20385;-67
2022/10/19 02:02:03;;;;;;;1.10;0.80;;;21.10;48.30;20.30;102448.00;;;;5042540;28;20024;-68
2022/10/19 02:04:29;;;;;;;1.63;0.50;;;21.20;48.40;20.30;102457.00;;;;5069059;28;20021;-68
2022/10/19 02:06:54;;;;;;;1.23;0.60;;;21.10;48.30;20.30;102456.00;;;;5059169;28;20045;-68
2022/10/19 02:09:20;;;;;;;0.50;0.43;;;21.20;48.30;20.30;102453.00;;;;5069467;28;20528;-67
2022/10/19 02:11:49;;;;;;;0.90;0.67;;;21.10;48.20;20.30;102445.00;;;;5075876;28;20462;-68
2022/10/19 02:14:16;;;;;;;0.55;0.50;;;21.10;48.10;20.30;102436.00;;;;5056014;28;20377;-68
2022/10/19 02:16:57;;;;;;;1.25;0.70;;;21.20;48.10;20.20;102440.00;;;;5062268;28;20021;-68
2022/10/19 02:19:23;;;;;;;1.00;0.60;;;21.10;48.00;20.30;102453.00;;;;5082328;28;20035;-68
2022/10/19 02:21:49;;;;;;;0.60;0.60;;;21.10;48.00;20.30;102443.00;;;;5084459;28;20033;-67
2022/10/19 02:24:15;;;;;;;2.38;0.60;;;21.10;48.00;20.20;102450.00;;;;5050484;28;20029;-68
2022/10/19 02:26:41;;;;;;;1.67;0.63;;;21.10;48.00;20.20;102447.00;;;;5072209;28;20050;-68
2022/10/19 02:29:07;;;;;;;1.20;0.60;;;21.10;48.00;20.20;102440.00;;;;5085851;28;20158;-67
2022/10/19 02:31:33;;;;;;;0.60;0.60;;;21.10;47.90;20.20;102440.00;;;;5077271;28;20056;-68
2022/10/19 02:33:58;;;;;;;0.80;0.63;;;21.10;48.00;20.20;102438.00;;;;5047946;28;20523;-68
2022/10/19 02:36:24;;;;;;;1.03;0.50;;;21.10;47.90;20.20;102438.00;;;;5073325;28;20122;-68
2022/10/19 02:38:50;;;;;;;0.60;0.57;;;21.10;47.80;20.20;102444.00;;;;5063982;28;20108;-67
2022/10/19 02:41:53;;;;;;;0.60;0.60;;;21.10;47.80;20.20;102438.00;;;;5072488;28;20107;-68
2022/10/19 02:44:25;;;;;;;1.10;0.50;;;21.10;47.90;20.20;102444.00;;;;5058553;28;20041;-67
2022/10/19 02:46:59;;;;;;;1.67;0.57;;;21.10;47.80;20.20;102442.00;;;;5072764;28;20028;-67
2022/10/19 02:49:26;;;;;;;1.38;0.60;;;21.10;47.80;20.20;102446.00;;;;5050420;28;20094;-68
2022/10/19 02:52:04;;;;;;;1.10;0.63;;;21.10;47.70;20.20;102438.00;;;;5062896;28;20051;-68
2022/10/19 02:54:29;;;;;;;0.85;0.65;;;21.10;47.70;20.10;102435.00;;;;5085743;28;20036;-67
2022/10/19 02:56:55;;;;;;;0.40;0.40;;;21.10;47.70;20.20;102435.00;;;;5066065;28;20028;-67
2022/10/19 02:59:21;;;;;;;0.77;0.60;;;21.10;47.70;20.10;102444.00;;;;5059300;28;20035;-67
2022/10/19 03:01:47;;;;;;;1.65;0.57;;;21.10;47.70;20.10;102443.00;;;;5067483;28;20389;-67
2022/10/19 03:04:13;;;;;;;1.00;0.57;;;21.10;47.70;20.10;102448.00;;;;5067738;28;20040;-67
2022/10/19 03:06:38;;;;;;;0.87;0.50;;;21.00;47.60;20.10;102446.00;;;;5086415;28;20021;-67
2022/10/19 03:09:04;;;;;;;0.97;0.50;;;21.10;47.70;20.10;102448.00;;;;5075843;28;20621;-67
2022/10/19 03:11:30;;;;;;;0.40;0.40;;;21.00;47.60;20.10;102440.00;;;;5064406;28;20498;-67
2022/10/19 03:13:56;;;;;;;0.80;0.60;;;21.10;47.60;20.10;102433.00;;;;5078843;28;20184;-67
2022/10/19 03:16:21;;;;;;;0.47;0.47;;;21.00;47.60;20.10;102429.00;;;;5064329;28;20020;-67
2022/10/19 03:18:48;;;;;;;0.70;0.60;;;21.00;47.60;20.10;102425.00;;;;5069065;28;20059;-67
2022/10/19 03:21:14;;;;;;;;;;;21.00;47.60;20.10;102423.00;;;;5072701;28;20022;-67
2022/10/19 03:23:40;;;;;;;0.70;0.50;;;21.00;48.00;20.10;102422.00;;;;5072444;28;19916;-68
2022/10/19 03:26:06;;;;;;;1.40;0.60;;;21.10;47.60;20.10;102420.00;;;;5075096;28;20028;-67
2022/10/19 03:28:32;;;;;;;0.93;0.40;;;21.10;47.50;20.10;102419.00;;;;5073342;28;20385;-67
2022/10/19 03:30:58;;;;;;;0.60;0.40;;;21.00;47.50;20.10;102426.00;;;;5073560;28;20025;-67
2022/10/19 03:33:24;;;;;;;0.63;0.57;;;21.00;47.50;20.10;102417.00;;;;5075700;28;20392;-67
2022/10/19 03:35:49;;;;;;;0.60;0.40;;;21.00;47.50;20.10;102426.00;;;;5076271;28;20033;-67
2022/10/19 03:38:15;;;;;;;0.67;0.67;;;21.00;47.50;20.10;102421.00;;;;5063770;28;20484;-67
2022/10/19 03:40:41;;;;;;;0.60;0.60;;;21.00;47.50;20.10;102425.00;;;;5073491;28;20028;-67
2022/10/19 03:43:07;;;;;;;0.67;0.60;;;21.00;47.50;20.10;102440.00;;;;5073706;28;20036;-67
2022/10/19 03:45:33;;;;;;;0.60;0.60;;;21.00;47.50;20.10;102436.00;;;;5071593;28;20048;-67
2022/10/19 03:47:58;;;;;;;0.73;0.57;;;21.00;47.50;20.10;102434.00;;;;5067583;28;20100;-68
2022/10/19 03:50:24;;;;;;;0.57;0.57;;;21.00;47.40;20.10;102432.00;;;;5086734;28;20123;-67
2022/10/19 03:52:50;;;;;;;0.83;0.70;;;21.00;47.40;20.10;102430.00;;;;5070788;28;20115;-67
2022/10/19 03:55:16;;;;;;;1.60;0.80;;;21.00;47.40;20.10;102438.00;;;;5077211;28;20098;-67
2022/10/19 03:57:42;;;;;;;0.57;0.57;;;21.00;47.30;20.10;102431.00;;;;5062128;28;20029;-67
2022/10/19 04:00:08;;;;;;;0.70;0.70;;;21.00;47.40;20.10;102439.00;;;;5089577;28;20033;-67
2022/10/19 04:02:34;;;;;;;;;;;21.00;47.30;20.00;102449.00;;;;5084464;28;20470;-67
2022/10/19 04:05:00;;;;;;;1.05;0.50;;;21.00;47.70;20.00;102450.00;;;;5073859;28;19926;-67
2022/10/19 04:07:25;;;;;;;0.60;0.60;;;21.00;47.20;20.00;102449.00;;;;5062335;28;20028;-68
2022/10/19 04:09:51;;;;;;;0.63;0.60;;;21.00;47.30;20.00;102443.00;;;;5090201;28;20480;-68
2022/10/19 04:12:17;;;;;;;0.80;0.80;;;21.00;47.30;20.00;102447.00;;;;5065214;28;20563;-68
2022/10/19 04:14:43;;;;;;;1.37;0.70;;;21.00;47.30;20.00;102435.00;;;;5070808;28;20115;-67
2022/10/19 04:17:09;;;;;;;1.70;0.87;;;21.00;47.30;20.00;102455.00;;;;5063528;28;20060;-68
2022/10/19 04:19:35;;;;;;;0.60;0.60;;;21.00;47.20;20.00;102454.00;;;;5064181;28;20021;-67
2022/10/19 04:22:00;;;;;;;0.70;0.60;;;21.00;47.30;20.00;102443.00;;;;5066642;28;20137;-68
2022/10/19 04:24:26;;;;;;;0.63;0.60;;;21.00;47.30;20.00;102437.00;;;;5071390;28;20115;-67
2022/10/19 04:26:54;;;;;;;0.90;0.50;;;20.90;47.50;20.00;102433.00;;;;5072383;28;20542;-67
2022/10/19 04:29:21;;;;;;;1.20;0.55;;;21.00;47.20;20.00;102449.00;;;;5046461;28;20048;-67
2022/10/19 04:31:50;;;;;;;1.27;0.65;;;21.00;47.20;20.00;102447.00;;;;5064226;28;20047;-68
2022/10/19 04:34:16;;;;;;;0.60;0.60;;;21.00;47.20;20.00;102453.00;;;;5066885;28;20070;-67
2022/10/19 04:36:42;;;;;;;1.77;0.57;;;21.00;47.20;20.00;102451.00;;;;5085231;28;20037;-67
2022/10/19 04:39:08;;;;;;;0.50;0.50;;;21.00;47.20;20.00;102453.00;;;;5066330;28;20040;-67
2022/10/19 04:41:34;;;;;;;2.13;0.70;;;21.00;47.20;20.00;102450.00;;;;5063768;28;20523;-67
2022/10/19 04:44:02;;;;;;;0.70;0.70;;;21.00;47.30;20.00;102454.00;;;;5065413;28;20423;-67
2022/10/19 04:46:28;;;;;;;1.70;0.60;;;21.10;47.20;20.00;102452.00;;;;5072483;28;20075;-67
2022/10/19 04:48:54;;;;;;;1.08;0.75;;;21.00;47.20;20.00;102440.00;;;;5064947;28;20036;-67
2022/10/19 04:51:20;;;;;;;0.60;0.60;;;21.00;47.20;20.00;102446.00;;;;5064372;28;20123;-67
2022/10/19 04:53:46;;;;;;;0.77;0.77;;;21.00;47.10;20.00;102446.00;;;;5065696;28;20107;-68
2022/10/19 04:56:15;;;;;;;0.88;0.60;;;21.00;47.10;20.00;102432.00;;;;5075582;28;20450;-67
2022/10/19 04:58:41;;;;;;;0.98;0.60;;;21.00;47.10;20.00;102440.00;;;;5058469;28;20028;-67
2022/10/19 05:01:14;;;;;;;0.87;0.70;;;21.00;47.10;20.00;102429.00;;;;5069710;28;20142;-67
2022/10/19 05:03:40;;;;;;;1.08;0.68;;;21.00;47.10;20.00;102427.00;;;;5064005;28;20033;-67
2022/10/19 05:06:07;;;;;;;0.70;0.60;;;21.00;47.00;20.00;102431.00;;;;5068539;28;20035;-67
2022/10/19 05:08:33;;;;;;;1.02;0.60;;;21.00;47.00;20.00;102423.00;;;;5058382;28;20028;-67
2022/10/19 05:11:04;;;;;;;0.87;0.70;;;21.00;47.00;20.00;102424.00;;;;5069212;28;20493;-67
2022/10/19 05:13:31;;;;;;;0.47;0.45;;;21.00;47.00;20.00;102413.00;;;;5063511;28;20111;-67
2022/10/19 05:15:58;;;;;;;0.95;0.70;;;21.00;47.00;20.00;102420.00;;;;5082418;28;20029;-67
2022/10/19 05:18:24;;;;;;;;;;;21.00;46.90;20.00;102417.00;;;;5066738;28;20490;-67
2022/10/19 05:20:49;;;;;;;0.50;0.43;;;21.00;47.30;20.00;102416.00;;;;5064273;28;19912;-68
2022/10/19 05:23:15;;;;;;;0.50;0.50;;;21.00;46.90;20.00;102418.00;;;;5068799;28;20020;-67
2022/10/19 05:25:41;;;;;;;1.87;0.50;;;21.00;46.90;20.00;102404.00;;;;5064838;28;20076;-67
2022/10/19 05:28:07;;;;;;;1.07;0.60;;;21.00;46.90;20.00;102404.00;;;;5079131;28;20099;-67
2022/10/19 05:30:32;;;;;;;0.80;0.80;;;21.00;46.90;20.00;102411.00;;;;5061150;28;20055;-67
2022/10/19 05:32:58;;;;;;;0.77;0.53;;;21.00;46.90;20.00;102411.00;;;;5067329;28;20128;-67
2022/10/19 05:35:24;;;;;;;0.57;0.57;;;21.00;46.90;20.00;102405.00;;;;5060439;28;20439;-67
2022/10/19 05:37:56;;;;;;;1.83;0.80;;;21.00;46.90;20.00;102405.00;;;;5071337;28;20551;-67
2022/10/19 05:40:21;;;;;;;6.43;1.15;;;21.00;46.90;20.00;102402.00;;;;5071786;28;20454;-67
2022/10/19 05:42:47;;;;;;;3.07;0.80;;;21.00;46.90;20.00;102410.00;;;;5072509;28;20038;-68
2022/10/19 05:45:13;;;;;;;3.50;1.00;;;21.00;46.90;20.00;102405.00;;;;5069155;28;20113;-67
2022/10/19 05:47:38;;;;;;;5.40;1.10;;;21.00;46.90;20.00;102400.00;;;;5067922;28;20112;-67
2022/10/19 05:50:04;;;;;;;1.50;0.70;;;21.00;46.80;20.00;102405.00;;;;5063256;28;20052;-67
2022/10/19 05:52:30;;;;;;;1.98;0.93;;;21.00;46.80;20.00;102404.00;;;;5071441;28;20029;-67
2022/10/19 05:54:57;;;;;;;1.83;0.83;;;21.00;46.80;20.00;102411.00;;;;5069699;28;20370;-67
2022/10/19 05:57:23;;;;;;;9.00;1.00;;;21.00;46.80;20.00;102417.00;;;;5063493;28;20025;-67
2022/10/19 05:59:49;;;;;;;1.38;0.85;;;21.00;46.80;20.00;102413.00;;;;5066371;28;20037;-67
2022/10/19 06:02:14;;;;;;;2.40;0.70;;;21.00;46.90;20.00;102413.00;;;;5064723;28;20393;-67
2022/10/19 06:04:40;;;;;;;2.90;0.83;;;21.00;46.90;20.00;102419.00;;;;5073365;28;20144;-67
2022/10/19 06:07:06;;;;;;;0.90;0.73;;;21.00;46.90;20.00;102415.00;;;;5064039;28;20047;-67
2022/10/19 06:09:35;;;;;;;3.10;1.00;;;21.00;46.90;20.00;102421.00;;;;5068208;28;20103;-67
2022/10/19 06:12:01;;;;;;;3.05;0.75;;;21.00;46.80;20.00;102427.00;;;;5064213;28;20044;-67
2022/10/19 06:14:26;;;;;;;1.10;0.75;;;21.00;46.80;20.00;102422.00;;;;5064814;28;20493;-67
2022/10/19 06:16:52;;;;;;;0.80;0.80;;;21.00;46.80;20.00;102427.00;;;;5059633;28;20039;-67
2022/10/19 06:19:18;;;;;;;1.97;0.90;;;21.00;46.80;20.00;102431.00;;;;5070425;28;20159;-67
2022/10/19 06:22:02;;;;;;;2.33;0.70;;;21.00;46.80;20.00;102428.00;;;;5078248;28;20043;-67
2022/10/19 06:24:27;;;;;;;3.08;0.80;;;21.00;46.80;20.00;102433.00;;;;5074520;28;20021;-67
2022/10/19 06:26:53;;;;;;;1.27;0.77;;;21.00;46.80;20.00;102438.00;;;;5069164;28;20401;-67
2022/10/19 06:29:19;;;;;;;1.53;0.80;;;21.00;46.80;20.00;102440.00;;;;5073951;28;20167;-67
2022/10/19 06:31:45;;;;;;;3.30;0.80;;;21.00;46.80;20.00;102437.00;;;;5067962;28;20115;-68
2022/10/19 06:34:11;;;;;;;1.30;0.60;;;21.20;46.90;20.00;102427.00;;;;5073786;28;20055;-67
2022/10/19 06:36:36;;;;;;;1.03;0.90;;;21.00;46.80;20.00;102446.00;;;;5066146;28;20558;-67
2022/10/19 06:39:02;;;;;;;2.10;0.70;;;21.00;46.80;20.00;102436.00;;;;5071497;28;20031;-67
2022/10/19 06:41:29;;;;;;;1.27;0.88;;;21.00;46.80;20.00;102438.00;;;;5075169;28;20024;-67
2022/10/19 06:43:55;;;;;;;0.85;0.85;;;21.00;46.90;20.00;102443.00;;;;5061867;28;20029;-67
2022/10/19 06:46:25;;;;;;;0.73;0.67;;;21.00;46.90;20.00;102432.00;;;;5076498;28;20503;-68
2022/10/19 06:48:58;;;;;;;1.98;1.00;;;21.00;46.90;20.00;102437.00;;;;5068458;28;20035;-67
2022/10/19 06:51:25;;;;;;;0.75;0.68;;;20.90;46.80;20.00;102446.00;;;;5048985;28;20513;-67
2022/10/19 06:53:51;;;;;;;0.73;0.70;;;21.00;46.80;20.00;102452.00;;;;5068103;28;20489;-67
2022/10/19 06:56:17;;;;;;;2.40;0.70;;;20.90;46.80;20.00;102442.00;;;;5071935;28;20032;-67
2022/10/19 06:58:44;;;;;;;2.03;0.70;;;20.90;46.80;20.00;102447.00;;;;5081758;28;20044;-67
2022/10/19 07:01:11;;;;;;;0.82;0.60;;;20.90;46.80;20.00;102441.00;;;;5071886;28;20020;-67
2022/10/19 07:03:36;;;;;;;1.75;0.60;;;20.90;46.80;20.00;102447.00;;;;5054022;28;20025;-67
2022/10/19 07:06:06;;;;;;;2.80;0.60;;;21.00;46.80;20.00;102447.00;;;;5070812;28;20183;-67
2022/10/19 07:08:32;;;;;;;0.75;0.75;;;20.90;46.70;20.00;102450.00;;;;5070494;28;20119;-67
2022/10/19 07:10:59;;;;;;;2.63;0.80;;;21.00;46.80;19.90;102453.00;;;;5084434;28;20029;-67
2022/10/19 07:13:26;;;;;;;0.88;0.60;;;20.90;46.70;20.00;102450.00;;;;5066418;28;20478;-68
2022/10/19 07:16:18;;;;;;;1.02;0.70;;;20.90;46.70;20.00;102442.00;;;;5067864;28;20093;-67
2022/10/19 07:18:44;;;;;;;1.30;0.80;;;21.00;46.90;20.00;102442.00;;;;5051155;28;20502;-67
2022/10/19 07:21:11;;;;;;;1.30;0.80;;;21.00;46.80;19.90;102445.00;;;;5064804;28;20021;-68
2022/10/19 07:23:39;;;;;;;1.77;0.88;;;20.90;46.70;19.90;102441.00;;;;5090642;28;20385;-68
2022/10/19 07:26:23;;;;;;;0.50;0.50;;;20.90;46.80;19.90;102446.00;;;;5070380;28;20398;-67
2022/10/19 07:28:49;;;;;;;1.15;0.63;;;20.90;46.60;20.00;102454.00;;;;5070675;28;20036;-67
2022/10/19 07:31:19;;;;;;;2.25;1.02;;;21.00;46.80;19.90;102452.00;;;;5060726;28;20508;-68
2022/10/19 07:34:02;;;;;;;0.90;0.60;;;20.90;46.70;20.00;102454.00;;;;5071738;28;20036;-67
2022/10/19 07:36:30;;;;;;;0.70;0.60;;;21.00;46.80;20.00;102445.00;;;;5061233;28;20028;-67
2022/10/19 07:38:56;;;;;;;1.25;0.80;;;21.00;46.80;20.00;102462.00;;;;5089533;28;20040;-67
2022/10/19 07:41:23;;;;;;;0.73;0.73;;;21.00;46.80;20.00;102454.00;;;;5070710;28;20378;-67
2022/10/19 07:43:49;;;;;;;0.80;0.80;;;20.90;46.70;20.00;102453.00;;;;5057134;28;20032;-67
2022/10/19 07:46:24;;;;;;;0.80;0.80;;;21.00;46.80;20.00;102459.00;;;;5075834;28;20255;-68
2022/10/19 07:48:49;;;;;;;4.45;0.82;;;21.00;46.80;20.00;102453.00;;;;5077016;28;20242;-67
2022/10/19 07:51:16;;;;;;;0.77;0.60;;;21.00;46.80;20.00;102471.00;;;;5055726;28;20028;-68
2022/10/19 07:53:42;;;;;;;2.13;0.90;;;20.90;46.80;20.00;102469.00;;;;5063098;28;20047;-67
2022/10/19 07:56:13;;;;;;;1.40;0.80;;;20.90;46.80;20.00;102473.00;;;;5072786;28;20020;-67
2022/10/19 07:58:39;;;;;;;0.77;0.60;;;21.00;46.80;20.00;102468.00;;;;5070319;28;20382;-67
2022/10/19 08:01:11;;;;;;;0.93;0.73;;;21.00;46.80;20.00;102469.00;;;;5051899;28;20052;-68
2022/10/19 08:03:36;;;;;;;3.78;0.85;;;21.00;46.80;20.00;102479.00;;;;5070802;28;20028;-67
2022/10/19 08:06:04;;;;;;;1.30;0.97;;;21.00;46.80;20.00;102469.00;;;;5085834;28;20036;-67
2022/10/19 08:08:30;;;;;;;1.55;0.90;;;21.00;46.80;20.00;102458.00;;;;5072979;28;20032;-67
2022/10/19 08:10:56;;;;;;;2.50;0.73;;;21.00;46.80;20.00;102459.00;;;;5077263;28;20043;-68
2022/10/19 08:13:22;;;;;;;1.27;0.60;;;21.00;46.90;20.00;102449.00;;;;5080373;28;20044;-67
2022/10/19 08:15:47;;;;;;;1.60;0.93;;;21.00;46.80;20.00;102457.00;;;;5068967;28;20036;-67
2022/10/19 08:18:13;;;;;;;2.93;0.87;;;21.10;46.90;20.00;102460.00;;;;5060702;28;20820;-67
2022/10/19 08:20:43;;;;;;;2.23;1.60;;;21.00;46.80;20.00;102465.00;;;;5057902;28;20033;-67
2022/10/19 08:23:09;;;;;;;1.08;0.98;;;21.00;46.80;20.00;102466.00;;;;5061251;28;20032;-67
2022/10/19 08:25:36;;;;;;;2.60;1.00;;;21.10;46.90;20.00;102470.00;;;;5071764;28;20040;-67
2022/10/19 08:28:02;;;;;;;2.15;0.90;;;21.10;46.90;20.00;102476.00;;;;5069038;28;20042;-67
2022/10/19 08:30:27;;;;;;;1.42;1.08;;;21.10;46.90;20.10;102462.00;;;;5070539;28;20032;-67
2022/10/19 08:32:53;;;;;;;2.07;1.07;;;21.10;47.00;20.10;102471.00;;;;5070989;28;20652;-67
2022/10/19 08:35:19;;;;;;;1.20;1.00;;;21.10;47.00;20.10;102467.00;;;;5067053;28;20447;-67
2022/10/19 08:37:45;;;;;;;2.90;0.93;;;21.10;47.00;20.10;102474.00;;;;5077089;28;20431;-67
2022/10/19 08:40:26;;;;;;;1.37;0.90;;;21.10;47.00;20.10;102471.00;;;;5066171;28;20570;-67
2022/10/19 08:43:19;;;;;;;2.78;1.40;;;21.10;46.90;20.10;102464.00;;;;5051676;28;20040;-67
2022/10/19 08:45:58;;;;;;;1.38;0.90;;;21.10;46.90;20.10;102455.00;;;;5067679;28;20109;-67
2022/10/19 08:48:28;;;;;;;1.50;0.90;;;21.10;47.00;20.10;102457.00;;;;5051754;28;20103;-68
2022/10/19 08:50:55;;;;;;;1.63;0.98;;;21.10;47.00;20.10;102455.00;;;;5070586;28;20067;-67
2022/10/19 08:53:44;;;;;;;1.52;1.00;;;21.10;47.00;20.10;102458.00;;;;5054292;28;20466;-68
2022/10/19 08:56:22;;;;;;;1.67;1.00;;;21.10;47.00;20.10;102459.00;;;;5071025;28;20162;-68
2022/10/19 08:59:12;;;;;;;2.92;0.90;;;21.20;47.10;20.10;102456.00;;;;5067512;28;20086;-68
2022/10/19 09:01:52;;;;;;;2.58;1.08;;;21.20;47.10;20.10;102450.00;;;;5054112;28;20077;-68
2022/10/19 09:04:41;;;;;;;1.70;1.00;;;21.20;47.20;20.10;102455.00;;;;5064432;28;20031;-68
2022/10/19 09:07:33;;;;;;;3.08;1.00;;;21.20;47.20;20.10;102453.00;;;;5063603;28;20265;-68
2022/10/19 09:10:03;;;;;;;2.90;0.93;;;21.20;47.30;20.10;102457.00;;;;5077033;28;20028;-68
2022/10/19 09:12:36;;;;;;;1.52;0.93;;;21.20;47.20;20.10;102461.00;;;;5064228;28;20032;-68
2022/10/19 09:15:06;;;;;;;1.95;0.98;;;21.20;47.20;20.10;102460.00;;;;5057916;28;20028;-67
2022/10/19 09:17:32;;;;;;;2.83;1.25;;;21.20;47.20;20.10;102459.00;;;;5061206;28;20069;-68
2022/10/19 09:20:20;;;;;;;2.43;0.93;;;21.20;47.20;20.20;102448.00;;;;5083082;28;20036;-68
2022/10/19 09:22:48;;;;;;;;;;;21.20;47.20;20.10;102454.00;;;;5067280;28;20021;-68
2022/10/19 09:25:17;;;;;;;2.17;0.90;;;21.30;47.40;20.20;102445.00;;;;5072057;28;20293;-68
2022/10/19 09:27:44;;;;;;;3.15;1.10;;;21.20;47.10;20.20;102443.00;;;;5060343;28;20055;-68
2022/10/19 09:30:21;;;;;;;1.38;0.90;;;21.20;47.10;20.20;102436.00;;;;5054235;28;20140;-67
2022/10/19 09:32:54;;;;;;;1.40;0.93;;;21.30;47.20;20.20;102437.00;;;;5042819;28;20024;-67
2022/10/19 09:35:40;;;;;;;2.38;1.00;;;21.20;47.10;20.20;102445.00;;;;5064981;28;20068;-68
2022/10/19 09:38:06;;;;;;;2.03;1.25;;;21.20;47.10;20.20;102449.00;;;;5090839;28;20114;-67
2022/10/19 09:40:33;;;;;;;3.05;0.80;;;21.30;47.20;20.20;102448.00;;;;5035898;28;20102;-67
2022/10/19 09:43:07;;;;;;;1.80;0.90;;;21.30;47.20;20.20;102450.00;;;;5073411;28;20060;-67
2022/10/19 09:46:14;;;;;;;2.88;0.95;;;21.30;47.20;20.20;102445.00;;;;5078390;28;20077;-68
2022/10/19 09:48:51;;;;;;;3.08;1.05;;;21.30;47.20;20.20;102441.00;;;;5063823;28;20036;-67
2022/10/19 09:51:17;;;;;;;4.00;1.10;;;21.30;47.20;20.20;102438.00;;;;5084965;28;20480;-67
2022/10/19 09:53:54;;;;;;;3.10;1.02;;;21.40;47.20;20.20;102432.00;;;;5086622;28;20075;-68
2022/10/19 09:56:22;;;;;;;2.35;0.88;;;21.40;47.20;20.20;102439.00;;;;5073230;28;20111;-67
2022/10/19 09:58:53;;;;;;;4.85;1.17;;;21.40;47.10;20.20;102425.00;;;;5070860;28;20090;-67
2022/10/19 10:01:34;;;;;;;2.70;1.25;;;21.40;47.10;20.20;102430.00;;;;5078319;28;20026;-68
2022/10/19 10:04:07;;;;;;;8.20;1.00;;;21.40;47.10;20.30;102442.00;;;;5066814;28;20032;-67
2022/10/19 10:06:33;;;;;;;2.80;0.70;;;21.40;47.10;20.30;102447.00;;;;5072724;28;20449;-68
2022/10/19 10:08:59;;;;;;;1.35;0.75;;;21.40;47.10;20.30;102444.00;;;;5086737;28;20020;-67
2022/10/19 10:11:38;;;;;;;1.43;0.73;;;21.30;47.10;20.30;102446.00;;;;5051685;28;20032;-68
2022/10/19 10:14:22;;;;;;;1.95;0.70;;;21.30;47.00;20.30;102447.00;;;;5079120;28;20531;-68
2022/10/19 10:16:56;;;;;;;2.28;0.85;;;21.40;47.00;20.30;102435.00;;;;5068871;28;20020;-68
2022/10/19 10:19:26;;;;;;;3.38;1.20;;;21.40;47.00;20.30;102437.00;;;;5047942;28;20070;-67
2022/10/19 10:21:56;;;;;;;3.95;1.20;;;21.40;47.00;20.30;102432.00;;;;5043657;28;20028;-67
2022/10/19 10:24:30;;;;;;;3.13;1.30;;;21.40;47.00;20.30;102419.00;;;;5090211;28;20046;-67
2022/10/19 10:27:01;;;;;;;2.13;1.00;;;21.40;46.90;20.30;102420.00;;;;5064544;28;20107;-67
2022/10/19 10:29:32;;;;;;;3.63;1.15;;;21.40;46.90;20.30;102413.00;;;;5075290;28;20028;-68
2022/10/19 10:32:12;;;;;;;2.10;1.00;;;21.40;46.80;20.30;102406.00;;;;5060332;28;20520;-68
2022/10/19 10:34:54;;;;;;;3.28;1.08;;;21.40;46.80;20.30;102408.00;;;;5046741;28;20391;-68
2022/10/19 10:37:43;;;;;;;2.05;0.77;;;21.40;46.70;20.30;102413.00;;;;5073321;28;20024;-67
2022/10/19 10:40:30;;;;;;;2.90;1.45;;;21.40;46.80;20.30;102405.00;;;;5080601;28;20068;-68
2022/10/19 10:43:14;;;;;;;3.95;1.00;;;21.40;46.80;20.30;102408.00;;;;5067184;28;20602;-67
2022/10/19 10:45:42;;;;;;;2.13;1.00;;;21.50;46.80;20.30;102408.00;;;;5051332;28;20552;-68
2022/10/19 10:48:29;;;;;;;3.33;0.88;;;21.50;46.80;20.40;102400.00;;;;5065154;28;20032;-68
2022/10/19 10:50:56;;;;;;;4.75;1.10;;;21.50;46.70;20.30;102405.00;;;;5064933;28;20086;-68
2022/10/19 10:53:42;;;;;;;2.83;1.02;;;21.40;46.70;20.40;102413.00;;;;5067610;28;20021;-68
2022/10/19 10:56:26;;;;;;;2.70;0.63;;;21.40;46.70;20.30;102406.00;;;;5074584;28;20689;-67
2022/10/19 10:59:03;;;;;;;2.63;1.10;;;21.50;46.70;20.40;102402.00;;;;5067397;28;20485;-68
2022/10/19 11:01:39;;;;;;;3.08;0.85;;;21.50;46.70;20.40;102398.00;;;;5058557;28;20050;-68
2022/10/19 11:04:15;;;;;;;2.75;1.00;;;21.40;46.60;20.40;102389.00;;;;5064978;28;20615;-68